Time;durP1;ratioP1;P1;durP2;ratioP2;P2;SDS_P1;SDS_P2;PMS_P1;PMS_P2;Temp;Humidity;BMP_temperature;BMP_pressure;BME280_temperature;BME280_humidity;BME280_pressure;Samples;Min_cycle;Max_cycle;Signal;HPM_P1;HPM_P2
2023/08/24 00:00:56;;;;;;;1.73;1.43;;;;;;;19.93;55.76;99065.25;5073875;28;40565;-77
2023/08/24 00:03:24;;;;;;;1.73;1.63;;;;;;;19.91;55.94;99072.63;5092204;28;43756;-76
2023/08/24 00:05:52;;;;;;;1.43;1.33;;;;;;;19.86;56.15;99066.88;5091231;28;43101;-77
2023/08/24 00:08:19;;;;;;;1.37;1.27;;;;;;;19.75;56.21;99048.25;5091251;28;38988;-76
2023/08/24 00:10:47;;;;;;;1.50;1.30;;;;;;;19.79;55.94;99069.28;5091118;28;41885;-76
2023/08/24 00:13:15;;;;;;;2.03;1.50;;;;;;;19.76;56.17;99071.44;5074092;28;44285;-77
2023/08/24 00:15:45;;;;;;;1.40;1.30;;;;;;;19.73;56.44;99068.06;5090818;28;41120;-76
2023/08/24 00:18:13;;;;;;;1.70;1.60;;;;;;;19.70;56.54;99068.34;5088773;28;40250;-77
2023/08/24 00:20:41;;;;;;;1.33;1.27;;;;;;;19.69;56.64;99065.81;5072924;28;40695;-77
2023/08/24 00:23:08;;;;;;;1.63;1.53;;;;;;;19.67;56.91;99060.56;5089942;28;43576;-77
2023/08/24 00:25:36;;;;;;;1.57;1.47;;;;;;;19.66;56.96;99061.56;5089618;28;41199;-77
2023/08/24 00:28:05;;;;;;;1.40;1.30;;;;;;;19.64;57.07;99062.72;5089957;28;40053;-77
2023/08/24 00:30:32;;;;;;;1.67;1.57;;;;;;;19.62;56.73;99056.66;5089591;28;40642;-77
2023/08/24 00:33:01;;;;;;;1.40;1.30;;;;;;;19.61;57.08;99053.13;5073024;28;41742;-76
2023/08/24 00:35:29;;;;;;;1.80;1.70;;;;;;;19.59;57.11;99047.03;5089559;28;42238;-77
2023/08/24 00:37:57;;;;;;;2.40;1.70;;;;;;;19.57;57.33;99051.72;5090049;28;39970;-78
2023/08/24 00:40:25;;;;;;;1.90;1.80;;;;;;;19.54;57.18;99043.94;5089651;28;41743;-77
2023/08/24 00:42:52;;;;;;;1.47;1.37;;;;;;;19.27;57.42;99011.66;5106514;28;42720;-77
2023/08/24 00:45:21;;;;;;;1.80;1.70;;;;;;;19.46;57.85;99043.81;5072242;28;42383;-76
2023/08/24 00:47:49;;;;;;;2.00;1.80;;;;;;;19.44;57.63;99045.78;5089713;28;39882;-77
2023/08/24 00:50:20;;;;;;;1.80;1.70;;;;;;;19.35;58.15;99035.94;5072409;28;40485;-76
2023/08/24 00:52:50;;;;;;;2.20;1.90;;;;;;;19.37;57.79;99048.22;5090233;28;42463;-77
2023/08/24 00:55:18;;;;;;;1.93;1.80;;;;;;;19.30;57.92;99048.94;5090180;28;41065;-77
2023/08/24 00:57:45;;;;;;;1.63;1.53;;;;;;;19.27;57.86;99050.09;5090553;28;39964;-77
2023/08/24 01:00:14;;;;;;;1.73;1.63;;;;;;;19.26;58.14;99045.72;5090069;28;41892;-77
2023/08/24 01:02:41;;;;;;;1.70;1.60;;;;;;;19.13;58.28;99026.41;5089977;28;43541;-77
2023/08/24 01:05:09;;;;;;;2.17;1.70;;;;;;;19.19;58.68;99041.06;5073482;28;42275;-77
2023/08/24 01:07:40;;;;;;;2.60;1.80;;;;;;;18.96;58.47;99009.19;5073386;28;38570;-76
2023/08/24 01:10:12;;;;;;;2.20;1.67;;;;;;;19.13;58.55;99033.63;5087505;28;42637;-77
2023/08/24 01:12:53;;;;;;;1.93;1.40;;;;;;;19.00;58.81;99021.34;5088999;28;42787;-77
2023/08/24 01:15:28;;;;;;;2.67;1.50;;;;;;;19.08;58.87;99043.94;5071899;28;41323;-77
2023/08/24 01:18:00;;;;;;;1.47;1.33;;;;;;;19.05;58.93;99044.22;5089333;28;40807;-77
2023/08/24 01:20:28;;;;;;;1.80;1.70;;;;;;;19.02;58.86;99040.00;5086900;28;42661;-77
2023/08/24 01:23:05;;;;;;;1.93;1.60;;;;;;;19.00;58.87;99036.59;5072145;28;41157;-77
2023/08/24 01:25:39;;;;;;;1.50;1.40;;;;;;;18.96;59.24;99046.78;5072237;28;40798;-77
2023/08/24 01:28:10;;;;;;;1.87;1.77;;;;;;;18.94;59.57;99043.38;5072209;28;39152;-77
2023/08/24 01:30:37;;;;;;;1.53;1.43;;;;;;;18.88;59.33;99035.94;5088701;28;40870;-77
2023/08/24 01:33:11;;;;;;;1.67;1.57;;;;;;;18.90;59.46;99046.53;5089022;28;42742;-77
2023/08/24 01:35:39;;;;;;;1.60;1.50;;;;;;;18.74;59.38;99028.31;5071735;28;42642;-77
2023/08/24 01:38:12;;;;;;;1.80;1.70;;;;;;;18.80;59.48;99046.50;5071978;28;39077;-77
2023/08/24 01:40:49;;;;;;;1.60;1.50;;;;;;;18.79;59.93;99046.69;5071899;28;40437;-77
2023/08/24 01:43:21;;;;;;;1.73;1.63;;;;;;;18.76;59.77;99042.44;5085987;28;43343;-77
2023/08/24 01:45:51;;;;;;;1.63;1.53;;;;;;;18.75;59.86;99048.78;5087381;28;42246;-77
2023/08/24 01:48:22;;;;;;;1.80;1.70;;;;;;;18.75;60.06;99045.25;5088214;28;39141;-77
2023/08/24 01:50:51;;;;;;;1.70;1.53;;;;;;;18.67;60.28;99032.53;5089683;28;41827;-77
2023/08/24 01:53:19;;;;;;;1.50;1.40;;;;;;;18.72;60.53;99032.97;5074439;28;42894;-76
2023/08/24 01:55:46;;;;;;;1.40;1.30;;;;;;;18.70;60.49;99040.31;5092989;28;42808;-77
2023/08/24 01:58:15;;;;;;;1.53;1.43;;;;;;;18.70;60.77;99040.31;5076164;28;39119;-77
2023/08/24 02:00:45;;;;;;;1.73;1.60;;;;;;;18.67;60.43;99043.28;5076444;28;41788;-76
2023/08/24 02:03:12;;;;;;;2.60;1.80;;;;;;;18.65;60.62;99042.59;5109487;28;42679;-77
2023/08/24 02:05:40;;;;;;;1.70;1.60;;;;;;;18.64;60.85;99040.91;5092735;28;42183;-77
2023/08/24 02:08:07;;;;;;;1.80;1.70;;;;;;;18.23;60.90;98989.22;5076263;28;41387;-76
2023/08/24 02:10:35;;;;;;;2.23;1.93;;;;;;;18.51;61.01;99041.16;5093714;28;42406;-77
2023/08/24 02:13:03;;;;;;;1.60;1.50;;;;;;;18.55;60.76;99055.09;5093075;28;42719;-76
2023/08/24 02:15:30;;;;;;;2.20;1.60;;;;;;;18.23;61.16;99013.34;5092790;28;42471;-76
2023/08/24 02:18:00;;;;;;;1.70;1.60;;;;;;;18.48;61.04;99056.69;5092845;28;40360;-77
2023/08/24 02:20:27;;;;;;;2.23;2.03;;;;;;;18.46;61.12;99058.66;5093729;28;41747;-77
2023/08/24 02:22:55;;;;;;;1.90;1.80;;;;;;;18.44;61.23;99058.78;5091282;28;42919;-77
2023/08/24 02:25:22;;;;;;;2.50;1.90;;;;;;;18.43;61.37;99061.59;5091404;28;42977;-77
2023/08/24 02:27:50;;;;;;;1.97;1.80;;;;;;;18.42;61.31;99057.25;5074965;28;39021;-77
2023/08/24 02:30:18;;;;;;;3.63;1.83;;;;;;;18.40;61.71;99059.22;5091255;28;42418;-77
2023/08/24 02:32:45;;;;;;;2.10;1.90;;;;;;;18.39;62.06;99049.47;5108768;28;43341;-77
2023/08/24 02:35:14;;;;;;;2.80;1.73;;;;;;;18.27;62.20;99028.16;5091210;28;40928;-77
2023/08/24 02:37:43;;;;;;;3.47;2.00;;;;;;;18.36;62.20;99058.66;5093463;28;40437;-76
2023/08/24 02:40:12;;;;;;;2.00;1.80;;;;;;;18.35;62.04;99064.16;5091257;28;42750;-77
2023/08/24 02:42:40;;;;;;;1.77;1.67;;;;;;;18.34;62.42;99065.13;5091604;28;43652;-76
2023/08/24 02:45:08;;;;;;;1.90;1.80;;;;;;;18.30;62.50;99065.41;5074319;28;41524;-76
2023/08/24 02:47:36;;;;;;;2.10;1.90;;;;;;;18.29;62.75;99058.38;5074588;28;39998;-76
2023/08/24 02:50:06;;;;;;;2.10;1.90;;;;;;;18.27;62.59;99065.69;5074007;28;40683;-77
2023/08/24 02:52:35;;;;;;;2.10;1.90;;;;;;;18.25;62.49;99056.09;5074562;28;41708;-77
2023/08/24 02:55:03;;;;;;;2.63;2.17;;;;;;;18.24;62.55;99049.03;5074646;28;41440;-76
2023/08/24 02:57:31;;;;;;;1.87;1.77;;;;;;;18.21;63.19;99039.44;5075464;28;40204;-77
2023/08/24 02:59:58;;;;;;;2.20;2.00;;;;;;;18.20;63.32;99040.41;5092123;28;41811;-77
2023/08/24 03:02:26;;;;;;;1.73;1.63;;;;;;;18.21;63.46;99036.75;5092228;28;42833;-77
2023/08/24 03:04:55;;;;;;;2.57;2.00;;;;;;;18.13;63.62;99019.69;5090818;28;42993;-76
2023/08/24 03:07:22;;;;;;;2.30;2.10;;;;;;;18.09;63.74;99012.91;5075220;28;38282;-76
2023/08/24 03:09:52;;;;;;;3.10;2.27;;;;;;;18.17;63.28;99021.97;5091511;28;42140;-76
2023/08/24 03:12:19;;;;;;;2.13;1.90;;;;;;;18.15;63.55;99021.25;5074982;28;41745;-77
2023/08/24 03:14:47;;;;;;;2.00;1.80;;;;;;;18.14;63.64;99026.75;5090421;28;43183;-76
2023/08/24 03:17:14;;;;;;;1.70;1.60;;;;;;;18.08;63.47;99020.09;5073487;28;40072;-77
2023/08/24 03:19:42;;;;;;;1.80;1.70;;;;;;;18.10;63.82;99022.63;5073605;28;41428;-77
2023/08/24 03:22:09;;;;;;;1.70;1.60;;;;;;;18.09;63.91;99021.78;5090859;28;42701;-76
2023/08/24 03:24:37;;;;;;;1.90;1.80;;;;;;;18.04;63.80;99021.38;5073892;28;41278;-77
2023/08/24 03:27:06;;;;;;;1.97;1.77;;;;;;;18.03;63.42;99029.56;5090605;28;39007;-77
2023/08/24 03:29:34;;;;;;;1.97;1.87;;;;;;;18.00;63.97;99030.66;5073833;28;41792;-76
2023/08/24 03:32:01;;;;;;;1.63;1.53;;;;;;;17.99;64.06;99037.00;5091905;28;42704;-76
2023/08/24 03:34:29;;;;;;;1.60;1.50;;;;;;;17.96;63.75;99031.91;5090799;28;42138;-77
2023/08/24 03:36:58;;;;;;;3.17;1.80;;;;;;;17.88;64.11;99011.19;5073621;28;40368;-77
2023/08/24 03:39:25;;;;;;;2.10;1.90;;;;;;;17.94;65.27;99020.47;5073589;28;41815;-77
2023/08/24 03:41:53;;;;;;;2.00;1.80;;;;;;;17.96;66.74;99005.13;5091640;28;42796;-77
2023/08/24 03:44:22;;;;;;;2.67;2.47;;;;;;;17.97;65.85;99008.66;5090408;28;41474;-77
2023/08/24 03:46:49;;;;;;;2.20;2.00;;;;;;;17.87;65.86;98997.91;5073259;28;39607;-77
2023/08/24 03:49:17;;;;;;;1.90;1.80;;;;;;;18.00;66.54;99003.88;5090439;28;42146;-77
2023/08/24 03:51:45;;;;;;;2.13;2.00;;;;;;;18.01;66.58;99002.03;5090219;28;42754;-77
2023/08/24 03:54:13;;;;;;;2.50;2.17;;;;;;;17.92;66.20;99001.03;5074038;28;42128;-77
2023/08/24 03:56:40;;;;;;;2.97;2.23;;;;;;;18.01;65.86;99026.16;5074327;28;39590;-77
2023/08/24 03:59:08;;;;;;;1.90;1.80;;;;;;;18.00;65.74;99025.31;5108397;28;42214;-76
2023/08/24 04:01:37;;;;;;;1.90;1.80;;;;;;;18.00;65.67;99014.59;5091018;28;43537;-76
2023/08/24 04:04:05;;;;;;;2.00;1.90;;;;;;;18.00;65.64;99013.75;5073808;28;41023;-77
2023/08/24 04:06:33;;;;;;;1.90;1.80;;;;;;;17.98;65.60;99008.50;5091111;28;40071;-77
2023/08/24 04:09:03;;;;;;;1.93;1.80;;;;;;;17.94;65.59;99009.78;5090731;28;41760;-77
2023/08/24 04:11:31;;;;;;;2.00;1.90;;;;;;;17.91;65.90;99012.75;5090747;28;43759;-76
2023/08/24 04:13:58;;;;;;;2.40;2.20;;;;;;;17.86;65.71;99005.13;5090907;28;41257;-76
2023/08/24 04:16:26;;;;;;;2.23;2.03;;;;;;;17.92;65.91;98998.38;5090887;28;40094;-77
2023/08/24 04:18:55;;;;;;;2.73;2.23;;;;;;;17.95;65.82;99006.94;5092068;28;42895;-76
2023/08/24 04:21:22;;;;;;;2.60;2.07;;;;;;;17.95;65.71;99011.47;5090173;28;42652;-76
2023/08/24 04:23:50;;;;;;;1.97;1.67;;;;;;;17.95;66.25;99014.13;5071255;28;41804;-77
2023/08/24 04:26:17;;;;;;;2.20;2.00;;;;;;;17.93;66.33;99019.63;5072396;28;38900;-77
2023/08/24 04:28:45;;;;;;;2.27;2.07;;;;;;;17.94;66.36;99012.44;5089284;28;41871;-77
2023/08/24 04:31:13;;;;;;;2.33;1.60;;;;;;;17.97;66.10;99014.00;5089292;28;42667;-77
2023/08/24 04:33:40;;;;;;;2.40;2.17;;;;;;;17.99;66.29;99018.25;5072257;28;41832;-77
2023/08/24 04:36:09;;;;;;;3.27;2.10;;;;;;;18.05;65.90;99022.22;5089028;28;39848;-77
2023/08/24 04:38:37;;;;;;;3.13;1.90;;;;;;;17.98;66.31;99005.00;5089345;28;41890;-76
2023/08/24 04:41:07;;;;;;;3.43;2.20;;;;;;;18.17;66.15;99029.16;5088974;28;43756;-77
2023/08/24 04:43:36;;;;;;;2.73;2.30;;;;;;;18.13;65.73;99006.28;5072504;28;42486;-77
2023/08/24 04:46:03;;;;;;;2.53;2.33;;;;;;;18.30;65.96;99027.84;5090356;28;40142;-77
2023/08/24 04:48:32;;;;;;;2.17;2.00;;;;;;;18.28;65.83;99012.94;5089366;28;41706;-76
2023/08/24 04:51:00;;;;;;;2.33;2.13;;;;;;;18.47;65.95;99018.28;5088626;28;42781;-77
2023/08/24 04:53:29;;;;;;;3.03;2.40;;;;;;;18.58;66.95;99009.25;5089388;28;42304;-77
2023/08/24 04:55:56;;;;;;;2.63;2.30;;;;;;;18.71;66.76;99008.97;5089852;28;40362;-76
2023/08/24 04:58:25;;;;;;;3.80;3.17;;;;;;;18.83;66.56;99002.44;5091137;28;41784;-76
2023/08/24 05:00:52;;;;;;;2.77;2.57;;;;;;;18.94;66.77;98999.59;5072928;28;42634;-76
2023/08/24 05:03:21;;;;;;;3.37;2.27;;;;;;;19.05;66.33;98985.16;5106826;28;42283;-76
2023/08/24 05:05:48;;;;;;;2.20;2.00;;;;;;;19.07;66.02;98964.38;5090065;28;40282;-77
2023/08/24 05:08:16;;;;;;;2.80;2.60;;;;;;;19.27;66.54;98955.28;5090127;28;42329;-77
2023/08/24 05:10:45;;;;;;;3.00;2.60;;;;;;;19.33;66.60;98938.56;5089436;28;43227;-77
2023/08/24 05:13:12;;;;;;;5.13;2.97;;;;;;;19.33;67.25;98917.06;5089662;28;42297;-77
2023/08/24 05:15:40;;;;;;;3.50;3.20;;;;;;;19.30;66.89;98915.53;5083906;28;39133;-77
2023/08/24 05:18:07;;;;;;;3.30;2.80;;;;;;;19.36;66.83;98935.59;5071847;28;40609;-78
2023/08/24 05:20:35;;;;;;;4.63;2.40;;;;;;;19.42;66.76;98948.38;5055269;28;42394;-77
2023/08/24 05:23:02;;;;;;;2.10;1.90;;;;;;;19.48;66.45;98961.25;5054554;28;42688;-80
2023/08/24 05:25:30;;;;;;;2.10;1.90;;;;;;;19.56;66.34;98961.38;5071185;28;39676;-81
2023/08/24 05:28:15;;;;;;;2.70;2.17;;;;;;;19.48;66.08;98928.16;5092279;28;42195;-80
2023/08/24 05:30:43;;;;;;;2.17;1.97;;;;;;;19.67;65.89;98955.78;5058411;28;41765;-80
2023/08/24 05:33:21;;;;;;;;;;;;;;;;;;;;;
2023/08/24 05:35:53;;;;;;;4.60;2.00;;;;;;;19.47;65.69;98900.44;5059423;28;39034;-84
2023/08/24 05:38:24;;;;;;;2.70;2.40;;;;;;;19.89;65.70;98972.50;5075787;28;41183;-84
2023/08/24 05:40:51;;;;;;;3.93;2.27;;;;;;;19.70;65.65;98939.34;5058926;28;41938;-83
2023/08/24 05:43:20;;;;;;;2.50;2.30;;;;;;;20.21;65.34;99007.75;5059361;28;41205;-82
2023/08/24 05:45:49;;;;;;;2.53;2.33;;;;;;;20.33;65.12;98994.94;5075443;28;40522;-81
2023/08/24 05:48:17;;;;;;;2.57;2.37;;;;;;;20.52;64.86;98988.59;5058776;28;40672;-81
2023/08/24 05:50:46;;;;;;;2.27;2.10;;;;;;;20.50;64.44;98967.22;5065487;28;41700;-79
2023/08/24 05:53:13;;;;;;;1.80;1.70;;;;;;;20.66;63.94;98982.63;5091835;28;41178;-80
2023/08/24 05:55:41;;;;;;;2.43;2.23;;;;;;;20.72;63.93;98973.94;5094878;28;40736;-79
2023/08/24 05:58:09;;;;;;;2.70;2.07;;;;;;;20.93;63.84;98987.88;5110801;28;41739;-83
2023/08/24 06:00:38;;;;;;;3.13;2.33;;;;;;;21.04;63.19;98984.91;5094158;28;42408;-82
2023/08/24 06:03:05;;;;;;;1.90;1.80;;;;;;;21.12;63.04;98987.66;5092738;28;42336;-81
2023/08/24 06:05:33;;;;;;;4.13;2.03;;;;;;;21.17;63.17;98977.25;5092012;28;39890;-79
2023/08/24 06:08:01;;;;;;;2.40;2.20;;;;;;;21.39;62.78;98988.50;5075441;28;40492;-79
2023/08/24 06:10:29;;;;;;;2.43;2.20;;;;;;;21.49;62.83;99000.00;5092328;28;43042;-82
2023/08/24 06:12:57;;;;;;;1.77;1.67;;;;;;;21.56;62.58;98992.97;5092477;28;41256;-85
2023/08/24 06:15:27;;;;;;;2.27;2.07;;;;;;;21.63;62.33;98995.88;5075178;28;40499;-85
2023/08/24 06:17:58;;;;;;;2.50;2.00;;;;;;;21.68;62.31;98997.03;5090331;28;41878;-81
2023/08/24 06:20:26;;;;;;;2.30;2.10;;;;;;;21.69;62.50;99009.53;5107178;28;42584;-84
2023/08/24 06:22:55;;;;;;;2.20;2.00;;;;;;;21.72;62.42;99014.59;5092437;28;42080;-85
2023/08/24 06:25:23;;;;;;;2.17;1.97;;;;;;;21.75;62.46;99019.66;5092088;28;41067;-81
2023/08/24 06:27:50;;;;;;;2.20;2.00;;;;;;;21.70;62.71;99016.59;5093630;28;42453;-81
2023/08/24 06:30:18;;;;;;;3.77;2.30;;;;;;;21.79;62.67;99039.03;5074800;28;41827;-80
2023/08/24 06:32:45;;;;;;;2.40;2.20;;;;;;;21.93;62.66;99056.44;5092021;28;41530;-80
2023/08/24 06:35:15;;;;;;;2.20;2.10;;;;;;;21.99;62.46;99063.94;5093427;28;39978;-83
2023/08/24 06:37:43;;;;;;;2.23;2.03;;;;;;;22.06;62.55;99067.66;5092953;28;42660;-77
2023/08/24 06:40:11;;;;;;;3.80;1.60;;;;;;;22.02;62.23;99042.84;5074762;28;41750;-80
2023/08/24 06:42:39;;;;;;;2.27;2.07;;;;;;;22.27;62.40;99076.16;5092336;28;41257;-80
2023/08/24 06:45:09;;;;;;;2.00;1.83;;;;;;;22.40;62.34;99081.06;5093299;28;40734;-81
2023/08/24 06:47:37;;;;;;;2.50;2.30;;;;;;;22.42;61.85;99071.81;5092027;28;41647;-84
2023/08/24 06:50:06;;;;;;;1.97;1.87;;;;;;;22.65;61.62;99096.28;5074766;28;41961;-79
2023/08/24 06:52:35;;;;;;;2.10;1.90;;;;;;;22.75;61.86;99093.47;5074717;28;41397;-85
2023/08/24 06:55:03;;;;;;;2.03;1.83;;;;;;;22.84;61.53;99098.72;5092526;28;39148;-80
2023/08/24 06:57:31;;;;;;;1.73;1.60;;;;;;;22.97;61.21;99095.53;5092797;28;40621;-81
2023/08/24 07:00:00;;;;;;;2.37;2.17;;;;;;;23.21;60.89;99103.63;5092668;28;43480;-82
2023/08/24 07:02:27;;;;;;;2.23;2.10;;;;;;;23.51;59.34;99103.94;5092458;28;41252;-81
2023/08/24 07:04:57;;;;;;;2.50;2.30;;;;;;;23.77;59.17;99104.53;5075455;28;39779;-82
2023/08/24 07:07:25;;;;;;;2.23;2.03;;;;;;;24.03;58.52;99096.16;5093763;28;41805;-80
2023/08/24 07:09:54;;;;;;;3.13;2.10;;;;;;;24.03;58.04;99061.00;5109283;28;41728;-81
2023/08/24 07:12:21;;;;;;;2.23;2.03;;;;;;;24.45;57.90;99084.16;5092498;28;42352;-80
2023/08/24 07:14:49;;;;;;;2.20;2.00;;;;;;;24.82;56.56;99078.81;5092381;28;39277;-81
2023/08/24 07:17:17;;;;;;;3.30;2.03;;;;;;;25.47;55.87;99082.84;5075507;28;41177;-81
2023/08/24 07:19:44;;;;;;;2.47;2.27;;;;;;;25.68;54.46;99077.53;5091360;28;43582;-80
2023/08/24 07:22:12;;;;;;;3.27;2.13;;;;;;;25.82;54.20;99074.00;5091790;28;42553;-83
2023/08/24 07:24:39;;;;;;;3.20;2.10;;;;;;;25.90;53.92;99067.63;5091501;28;39918;-80
2023/08/24 07:27:09;;;;;;;2.30;2.10;;;;;;;25.98;53.71;99053.94;5073930;28;41064;-83
2023/08/24 07:29:37;;;;;;;3.33;1.93;;;;;;;26.12;52.91;99053.91;5092275;28;43521;-81
2023/08/24 07:32:05;;;;;;;4.47;2.50;;;;;;;26.39;52.55;99029.81;5092151;28;42359;-84
2023/08/24 07:34:32;;;;;;;3.57;2.40;;;;;;;26.56;52.60;99042.13;5091326;28;39930;-78
2023/08/24 07:37:00;;;;;;;2.17;2.07;;;;;;;26.63;52.29;99056.59;5090778;28;42103;-82
2023/08/24 07:39:27;;;;;;;3.23;2.37;;;;;;;26.65;51.33;99056.41;5092200;28;43619;-81
2023/08/24 07:41:55;;;;;;;3.83;2.23;;;;;;;26.77;52.02;99050.28;5091936;28;42435;-81
2023/08/24 07:44:24;;;;;;;3.27;2.40;;;;;;;26.96;51.94;99050.66;5091310;28;40080;-84
2023/08/24 07:46:51;;;;;;;2.47;2.27;;;;;;;27.25;51.66;99058.66;5092049;28;42782;-81
2023/08/24 07:49:19;;;;;;;2.43;2.10;;;;;;;27.39;50.76;99055.00;5107858;28;43699;-81
2023/08/24 07:51:47;;;;;;;3.80;2.03;;;;;;;27.49;50.73;99049.19;5073299;28;41144;-80
2023/08/24 07:54:15;;;;;;;3.40;2.07;;;;;;;27.79;49.50;99060.72;5074846;28;40102;-79
2023/08/24 07:56:43;;;;;;;2.57;2.13;;;;;;;28.19;49.21;99050.84;5074895;28;40393;-81
2023/08/24 07:59:11;;;;;;;2.00;1.80;;;;;;;28.67;48.09;99065.28;5074657;28;41756;-80
2023/08/24 08:01:40;;;;;;;3.00;2.23;;;;;;;28.56;47.77;99068.59;5091404;28;41301;-85
2023/08/24 08:04:07;;;;;;;2.10;2.00;;;;;;;28.49;48.42;99056.84;5078483;28;39900;-83
2023/08/24 08:06:35;;;;;;;2.50;2.30;;;;;;;28.42;48.30;99045.09;5103227;28;41976;-77
2023/08/24 08:09:03;;;;;;;3.17;2.30;;;;;;;28.24;48.68;99026.59;5098674;28;43906;-79
2023/08/24 08:11:31;;;;;;;2.53;2.10;;;;;;;28.08;48.38;99022.28;5098639;28;43101;-79
2023/08/24 08:13:59;;;;;;;1.93;1.83;;;;;;;27.92;48.76;99016.38;5096084;28;39957;-80
2023/08/24 08:16:26;;;;;;;2.93;2.70;;;;;;;27.89;49.38;99015.75;5094502;28;40858;-81
2023/08/24 08:18:55;;;;;;;2.53;2.30;;;;;;;28.01;49.85;99007.84;5094964;28;42702;-82
2023/08/24 08:21:23;;;;;;;3.00;2.70;;;;;;;27.91;48.78;99004.66;5075536;28;42248;-81
2023/08/24 08:23:51;;;;;;;3.00;2.70;;;;;;;27.92;48.81;99021.84;5073556;28;39188;-82
2023/08/24 08:26:18;;;;;;;2.47;2.27;;;;;;;27.89;48.50;99023.06;5091767;28;41394;-84
2023/08/24 08:28:46;;;;;;;2.77;2.47;;;;;;;28.07;48.71;99019.78;5090243;28;41668;-80
2023/08/24 08:31:13;;;;;;;2.70;2.50;;;;;;;28.19;47.62;99037.25;5091248;28;42203;-79
2023/08/24 08:33:41;;;;;;;2.97;2.60;;;;;;;28.56;47.62;99036.72;5090833;28;39873;-79
2023/08/24 08:36:10;;;;;;;4.97;2.70;;;;;;;29.11;46.60;99040.16;5107304;28;41775;-78
2023/08/24 08:38:38;;;;;;;3.13;2.77;;;;;;;29.76;46.09;99037.56;5073192;28;41666;-79
2023/08/24 08:41:05;;;;;;;4.40;2.77;;;;;;;30.45;44.55;99047.78;5089635;28;43275;-84
2023/08/24 08:43:33;;;;;;;2.87;2.57;;;;;;;31.43;43.56;99052.56;5091511;28;41187;-81
2023/08/24 08:46:01;;;;;;;3.03;2.80;;;;;;;32.27;39.81;99064.75;5090117;28;42110;-80
2023/08/24 08:48:31;;;;;;;2.67;2.47;;;;;;;33.10;40.21;99059.34;5090044;28;42173;-80
2023/08/24 08:51:01;;;;;;;3.00;2.80;;;;;;;33.29;39.29;99059.25;5089504;28;42220;-82
2023/08/24 08:53:30;;;;;;;2.93;2.60;;;;;;;33.63;39.57;99055.69;5091502;28;40863;-81
2023/08/24 08:56:03;;;;;;;3.33;3.03;;;;;;;34.58;37.99;99056.09;5091894;28;42539;-80
2023/08/24 08:58:32;;;;;;;3.20;2.60;;;;;;;36.06;36.38;99056.59;5074297;28;42020;-81
2023/08/24 09:01:03;;;;;;;2.75;2.55;;;;;;;36.98;33.99;99055.72;5090959;28;42258;-78
2023/08/24 09:03:32;;;;;;;4.65;2.53;;;;;;;37.49;33.67;99064.44;5076661;28;39966;-81
2023/08/24 09:06:00;;;;;;;3.75;2.58;;;;;;;38.10;33.76;99054.63;5077254;28;40856;-80
2023/08/24 09:08:28;;;;;;;2.75;2.53;;;;;;;38.45;31.58;99076.09;5077404;28;41785;-81
2023/08/24 09:10:59;;;;;;;2.70;2.50;;;;;;;38.64;31.39;99055.13;5095579;28;42588;-80
2023/08/24 09:13:27;;;;;;;2.30;2.20;;;;;;;38.52;31.05;99060.03;5094366;28;40204;-78
2023/08/24 09:15:55;;;;;;;2.75;2.40;;;;;;;38.22;30.80;99048.88;5094024;28;40409;-83
2023/08/24 09:18:22;;;;;;;2.90;2.08;;;;;;;37.81;31.16;99026.56;5075672;28;43212;-78
2023/08/24 09:20:50;;;;;;;3.35;2.30;;;;;;;37.47;31.33;99027.94;5093161;28;41569;-81
2023/08/24 09:23:21;;;;;;;2.15;1.95;;;;;;;37.50;32.29;99017.22;5093238;28;40025;-84
2023/08/24 09:25:49;;;;;;;2.30;2.10;;;;;;;37.11;32.05;99013.84;5076310;28;41936;-82
2023/08/24 09:28:24;;;;;;;2.30;2.20;;;;;;;36.67;32.58;99025.06;5092961;28;42073;-82
2023/08/24 09:30:54;;;;;;;2.13;2.03;;;;;;;36.78;33.70;99014.97;5076438;28;41026;-80
2023/08/24 09:33:24;;;;;;;2.30;2.10;;;;;;;37.46;31.54;99042.91;5092986;28;39861;-82
2023/08/24 09:35:54;;;;;;;2.70;2.30;;;;;;;37.99;30.45;99028.84;5093376;28;40916;-79
2023/08/24 09:38:23;;;;;;;2.22;2.05;;;;;;;38.16;30.33;99036.13;5094499;28;43753;-80
2023/08/24 09:40:52;;;;;;;2.05;1.92;;;;;;;38.12;30.35;99026.69;5075870;28;41697;-79
2023/08/24 09:43:22;;;;;;;2.53;2.30;;;;;;;37.60;30.81;99010.91;5093257;28;39213;-83
2023/08/24 09:45:51;;;;;;;2.88;2.10;;;;;;;37.43;30.76;98999.22;5093809;28;42819;-81
2023/08/24 09:48:19;;;;;;;3.40;2.05;;;;;;;37.21;30.71;98994.66;5075787;28;42940;-84
2023/08/24 09:50:48;;;;;;;2.25;2.05;;;;;;;36.93;31.09;99011.50;5094165;28;42245;-83
2023/08/24 09:53:19;;;;;;;2.25;2.05;;;;;;;36.89;31.46;99015.88;5093091;28;40996;-81
2023/08/24 09:55:54;;;;;;;2.65;2.45;;;;;;;36.76;31.40;98994.25;5093248;28;42115;-83
2023/08/24 09:58:24;;;;;;;3.33;2.10;;;;;;;36.77;30.79;98971.06;5091627;28;42584;-83
2023/08/24 10:00:53;;;;;;;2.33;2.15;;;;;;;36.65;32.06;98949.97;5076465;28;41287;-81
2023/08/24 10:03:22;;;;;;;2.05;1.95;;;;;;;36.62;31.50;98961.50;5076587;28;38691;-80
2023/08/24 10:05:53;;;;;;;2.03;1.92;;;;;;;36.46;31.66;98964.41;5093460;28;42210;-79
2023/08/24 10:08:23;;;;;;;2.70;2.00;;;;;;;36.71;30.54;98958.31;5076535;28;41776;-81
2023/08/24 10:10:54;;;;;;;1.80;1.67;;;;;;;37.07;30.04;98934.59;5076147;28;42859;-87
2023/08/24 10:13:30;;;;;;;2.88;2.08;;;;;;;37.63;30.67;98924.72;5091166;28;41016;-84
2023/08/24 10:16:00;;;;;;;2.10;1.85;;;;;;;38.06;29.35;98945.63;5091994;28;42512;-83
2023/08/24 10:18:28;;;;;;;2.47;1.65;;;;;;;38.01;29.15;98937.28;5076521;28;43229;-80
2023/08/24 10:20:57;;;;;;;1.95;1.75;;;;;;;37.95;29.19;98947.53;5092712;28;43231;-80
2023/08/24 10:23:25;;;;;;;2.85;1.73;;;;;;;37.88;28.58;98946.94;5109293;28;40968;-80
2023/08/24 10:25:56;;;;;;;2.47;1.77;;;;;;;37.81;28.46;98938.06;5091299;28;41852;-79
2023/08/24 10:28:27;;;;;;;2.55;1.67;;;;;;;37.54;27.56;98938.19;5075165;28;41536;-82
2023/08/24 10:30:56;;;;;;;1.55;1.45;;;;;;;37.25;28.35;98935.00;5091868;28;42344;-77
2023/08/24 10:33:25;;;;;;;2.65;1.40;;;;;;;37.13;28.65;98939.03;5093081;28;40248;-80
2023/08/24 10:35:52;;;;;;;2.10;1.75;;;;;;;37.29;28.55;98938.91;5075194;28;40792;-81
2023/08/24 10:38:30;;;;;;;1.60;1.50;;;;;;;38.07;28.91;98934.28;5093283;28;42801;-79
2023/08/24 10:41:04;;;;;;;7.03;1.70;;;;;;;39.02;27.75;98936.63;5090687;28;43263;-78
2023/08/24 10:43:35;;;;;;;2.10;1.42;;;;;;;40.00;24.86;98950.78;5075083;28;38961;-81
2023/08/24 10:46:03;;;;;;;3.00;1.85;;;;;;;40.72;24.23;98952.03;5091660;28;40939;-81
2023/08/24 10:48:32;;;;;;;1.75;1.65;;;;;;;41.37;24.66;98938.66;5091554;28;41978;-83
2023/08/24 10:51:19;;;;;;;1.75;1.65;;;;;;;41.32;25.06;98927.56;5091821;28;42394;-80
2023/08/24 10:53:48;;;;;;;1.75;1.65;;;;;;;40.90;24.41;98931.88;5075307;28;38711;-82
2023/08/24 10:56:17;;;;;;;2.78;1.77;;;;;;;40.54;24.37;98938.81;5075563;28;40941;-84
2023/08/24 10:58:48;;;;;;;1.60;1.50;;;;;;;40.46;25.24;98926.38;5093790;28;42577;-81
2023/08/24 11:01:17;;;;;;;2.75;1.88;;;;;;;40.40;25.25;98915.63;5091648;28;43207;-83
2023/08/24 11:03:50;;;;;;;5.25;1.73;;;;;;;40.74;25.68;98915.63;5092416;28;38582;-82
2023/08/24 11:06:22;;;;;;;1.67;1.58;;;;;;;40.99;26.12;98912.63;5092105;28;40901;-81
2023/08/24 11:08:50;;;;;;;2.60;2.10;;;;;;;41.40;25.91;98904.69;5092307;28;41762;-82
2023/08/24 11:11:21;;;;;;;2.03;1.70;;;;;;;41.72;25.45;98903.22;5093075;28;42973;-85
2023/08/24 11:14:16;;;;;;;2.38;1.80;;;;;;;41.81;26.10;98890.28;5092371;28;40695;-82
2023/08/24 11:16:46;;;;;;;3.55;1.85;;;;;;;41.72;25.29;98886.53;5093261;28;40813;-82
2023/08/24 11:19:14;;;;;;;2.28;2.08;;;;;;;41.75;24.86;98880.38;5101961;28;41667;-79
2023/08/24 11:21:43;;;;;;;2.47;1.85;;;;;;;41.61;23.87;98896.97;5100500;28;43332;-79
2023/08/24 11:24:13;;;;;;;1.90;1.80;;;;;;;41.35;24.70;98876.94;5097696;28;39790;-79
2023/08/24 11:26:42;;;;;;;2.28;2.10;;;;;;;41.30;25.89;98868.66;5073627;28;41924;-82
2023/08/24 11:29:11;;;;;;;2.10;1.90;;;;;;;41.20;25.07;98879.91;5091245;28;43154;-81
2023/08/24 11:31:40;;;;;;;2.47;1.95;;;;;;;41.07;25.19;98875.84;5108309;28;42497;-79
2023/08/24 11:34:08;;;;;;;2.45;1.67;;;;;;;40.98;24.61;98876.78;5090860;28;39200;-80
2023/08/24 11:36:43;;;;;;;2.05;1.77;;;;;;;41.18;25.11;98862.69;5092254;28;42068;-81
2023/08/24 11:39:16;;;;;;;2.53;1.65;;;;;;;41.53;25.15;98856.72;5090828;28;42838;-83
2023/08/24 11:41:44;;;;;;;2.35;1.98;;;;;;;41.75;23.59;98864.50;5091884;28;42184;-84